Helsinki — V2PM — position and weather

sailwx.info

Track history (hours):
 
Tides and Currents Weather Stations Pressure Air Temp Water Temp Dewpoint Dewpoint Depression Visibility Wind Speed Wind Dir Waves Ship Positions

Helsinki

Last reported at 2017-Dec-03 20:56 UTC. Time now 2017-Dec-11 09:41 UTC.
Position N 35°58' W 005°37'.

MMSI: 304010778.

Date/timePositionNaut miles runAvg speedWind from/ knotsBaromVisibWave heightAir tempDewpointWater temp
2017-Dec-03 20:56N 35°58' W 005°37'510.8
2017-Dec-03 20:30N 35°59' W 005°31'510.3
2017-Dec-03 20:00N 36°01' W 005°25'510.2
2017-Dec-03 19:30N 36°02' W 005°19'510.2
2017-Dec-03 19:00N 36°03' W 005°13'  
2017-Nov-27 08:33N 43°22' E 004°05'4 9.5
2017-Nov-27 08:10N 43°21' E 004°10'2 9.7
2017-Nov-27 07:59N 43°21' E 004°12'5 9.8
2017-Nov-27 07:31N 43°19' E 004°19'5 9.5
2017-Nov-27 07:00N 43°18' E 004°25'5 9.6
2017-Nov-27 06:30N 43°17' E 004°31'5 9.3
2017-Nov-27 06:00N 43°16' E 004°37'5 9.9
2017-Nov-27 05:30N 43°16' E 004°44'5 9.4
2017-Nov-27 05:00N 43°17' E 004°51'6 9.4
2017-Nov-27 04:22N 43°19' E 004°59'410.2
2017-Nov-27 04:00N 43°22' E 004°58'4 8.8
2017-Nov-27 03:30N 43°25' E 004°53'1 0.1
2017-Nov-26 18:57N 43°26' E 004°53'0 0.0
2017-Nov-26 16:51N 43°26' E 004°53'0 0.0
2017-Nov-26 12:03N 43°26' E 004°53'0 0.0
2017-Nov-26 05:09N 43°26' E 004°53'0 0.0
2017-Nov-26 02:57N 43°26' E 004°53'0 0.0
2017-Nov-26 01:23N 43°26' E 004°53'0 0.3
2017-Nov-26 01:00N 43°25' E 004°53'2 4.0
2017-Nov-26 00:30N 43°24' E 004°55'1 1.4
2017-Nov-25 23:58N 43°24' E 004°56'0 0.1
2017-Nov-25 23:16N 43°24' E 004°56'0 0.1
2017-Nov-25 22:58N 43°24' E 004°56'0 0.0
2017-Nov-25 22:28N 43°24' E 004°56'0 0.0
2017-Nov-25 21:58N 43°24' E 004°56'0 0.1
2017-Nov-25 21:28N 43°24' E 004°57'0 0.0
2017-Nov-25 20:58N 43°24' E 004°57'0 0.0
2017-Nov-25 20:22N 43°24' E 004°57'0 0.0
2017-Nov-25 19:55N 43°24' E 004°56'0 0.0
2017-Nov-25 19:28N 43°24' E 004°56'0 0.1
2017-Nov-25 18:55N 43°24' E 004°56'0 0.0
2017-Nov-25 18:28N 43°24' E 004°56'0 0.1
2017-Nov-25 17:55N 43°24' E 004°56'0 0.0
2017-Nov-25 17:16N 43°24' E 004°56'0 0.0
2017-Nov-25 16:58N 43°24' E 004°56'0 0.2
2017-Nov-25 16:30N 43°24' E 004°56'4 8.6
2017-Nov-25 16:01N 43°20' E 004°59'5 9.1
2017-Nov-25 15:30N 43°16' E 004°56'611.4
2017-Nov-25 15:00N 43°16' E 004°48'611.3
2017-Nov-25 14:30N 43°15' E 004°41'611.4
2017-Nov-25 14:00N 43°14' E 004°33'611.5
2017-Nov-25 13:29N 43°15' E 004°25'611.5
2017-Nov-25 12:58N 43°16' E 004°17'  
Track history (hours):
 
Tides and Currents Weather Stations Pressure Air Temp Water Temp Dewpoint Dewpoint Depression Visibility Wind Speed Wind Dir Waves Ship Positions

Helsinki

Last reported at 2017-Dec-03 20:56 UTC. Time now 2017-Dec-11 09:41 UTC.
Position N 35°58' W 005°37'.

MMSI: 304010778.

Date/timePositionNaut miles runAvg speedWind from/ knotsBaromVisibWave heightAir tempDewpointWater temp
2017-Dec-03 20:56N 35°58' W 005°37'510.8
2017-Dec-03 20:30N 35°59' W 005°31'510.3
2017-Dec-03 20:00N 36°01' W 005°25'510.2
2017-Dec-03 19:30N 36°02' W 005°19'510.2
2017-Dec-03 19:00N 36°03' W 005°13'  
2017-Nov-27 08:33N 43°22' E 004°05'4 9.5
2017-Nov-27 08:10N 43°21' E 004°10'2 9.7
2017-Nov-27 07:59N 43°21' E 004°12'5 9.8
2017-Nov-27 07:31N 43°19' E 004°19'5 9.5
2017-Nov-27 07:00N 43°18' E 004°25'5 9.6
2017-Nov-27 06:30N 43°17' E 004°31'5 9.3
2017-Nov-27 06:00N 43°16' E 004°37'5 9.9
2017-Nov-27 05:30N 43°16' E 004°44'5 9.4
2017-Nov-27 05:00N 43°17' E 004°51'6 9.4
2017-Nov-27 04:22N 43°19' E 004°59'410.2
2017-Nov-27 04:00N 43°22' E 004°58'4 8.8
2017-Nov-27 03:30N 43°25' E 004°53'1 0.1
2017-Nov-26 18:57N 43°26' E 004°53'0 0.0
2017-Nov-26 16:51N 43°26' E 004°53'0 0.0
2017-Nov-26 12:03N 43°26' E 004°53'0 0.0
2017-Nov-26 05:09N 43°26' E 004°53'0 0.0
2017-Nov-26 02:57N 43°26' E 004°53'0 0.0
2017-Nov-26 01:23N 43°26' E 004°53'0 0.3
2017-Nov-26 01:00N 43°25' E 004°53'2 4.0
2017-Nov-26 00:30N 43°24' E 004°55'1 1.4
2017-Nov-25 23:58N 43°24' E 004°56'0 0.1
2017-Nov-25 23:16N 43°24' E 004°56'0 0.1
2017-Nov-25 22:58N 43°24' E 004°56'0 0.0
2017-Nov-25 22:28N 43°24' E 004°56'0 0.0
2017-Nov-25 21:58N 43°24' E 004°56'0 0.1
2017-Nov-25 21:28N 43°24' E 004°57'0 0.0
2017-Nov-25 20:58N 43°24' E 004°57'0 0.0
2017-Nov-25 20:22N 43°24' E 004°57'0 0.0
2017-Nov-25 19:55N 43°24' E 004°56'0 0.0
2017-Nov-25 19:28N 43°24' E 004°56'0 0.1
2017-Nov-25 18:55N 43°24' E 004°56'0 0.0
2017-Nov-25 18:28N 43°24' E 004°56'0 0.1
2017-Nov-25 17:55N 43°24' E 004°56'0 0.0
2017-Nov-25 17:16N 43°24' E 004°56'0 0.0
2017-Nov-25 16:58N 43°24' E 004°56'0 0.2
2017-Nov-25 16:30N 43°24' E 004°56'4 8.6
2017-Nov-25 16:01N 43°20' E 004°59'5 9.1
2017-Nov-25 15:30N 43°16' E 004°56'611.4
2017-Nov-25 15:00N 43°16' E 004°48'611.3
2017-Nov-25 14:30N 43°15' E 004°41'611.4
2017-Nov-25 14:00N 43°14' E 004°33'611.5
2017-Nov-25 13:29N 43°15' E 004°25'611.5
2017-Nov-25 12:58N 43°16' E 004°17'  

Dump ship's entire track history